Time;durP1;ratioP1;P1;durP2;ratioP2;P2;SDS_P1;SDS_P2;PMS_P1;PMS_P2;Temp;Humidity;BMP_temperature;BMP_pressure;BME280_temperature;BME280_humidity;BME280_pressure;Samples;Min_cycle;Max_cycle;Signal;HPM_P1;HPM_P2
2023/01/20 00:00:28;;;;;;;;;;;;;;;1.96;85.64;101060.94;20946596;28;19924;-58
2023/01/20 00:10:49;;;;;;;;;;;;;;;1.87;85.86;101063.41;20956429;28;19924;-58
2023/01/20 00:21:12;;;;;;;;;;;;;;;1.80;85.79;101075.25;20940403;28;19925;-58
2023/01/20 00:31:34;;;;;;;;;;;;;;;1.72;85.95;101086.25;20945840;28;19936;-59
2023/01/20 00:41:56;;;;;;;;;;;;;;;1.58;87.46;101097.97;20941070;28;20368;-57
2023/01/20 00:52:17;;;;;;;;;;;;;;;1.50;88.29;101110.63;20949324;28;20287;-59
2023/01/20 01:02:39;;;;;;;;;;;;;;;1.53;88.78;101117.47;20946045;28;20308;-59
2023/01/20 01:13:01;;;;;;;;;;;;;;;1.47;88.85;101128.44;20942585;28;19925;-58
2023/01/20 01:23:22;;;;;;;;;;;;;;;1.48;89.40;101149.72;20945730;28;19951;-58
2023/01/20 01:33:44;;;;;;;;;;;;;;;1.28;90.33;101162.22;20939245;28;19929;-57
2023/01/20 01:44:07;;;;;;;;;;;;;;;1.34;90.86;101172.47;20937305;28;20453;-58
2023/01/20 01:54:31;;;;;;;;;;;;;;;1.45;90.00;101182.78;20933724;28;19970;-58
2023/01/20 02:04:53;;;;;;;;;;;;;;;1.49;90.05;101184.56;20923309;28;19932;-58
2023/01/20 02:15:15;;;;;;;;;;;;;;;1.59;90.75;101196.59;20931637;28;19932;-59
2023/01/20 02:25:40;;;;;;;;;;;;;;;1.64;89.88;101207.69;20947927;28;19967;-58
2023/01/20 02:36:04;;;;;;;;;;;;;;;1.72;89.85;101229.06;20926204;28;19924;-57
2023/01/20 02:46:32;;;;;;;;;;;;;;;1.74;90.35;101248.63;20944557;28;19931;-59
2023/01/20 02:56:55;;;;;;;;;;;;;;;1.78;89.06;101246.94;20941366;28;20334;-58
2023/01/20 03:07:19;;;;;;;;;;;;;;;1.79;89.93;101248.69;20930773;28;19970;-58
2023/01/20 03:17:40;;;;;;;;;;;;;;;1.79;88.58;101256.34;20935390;28;19925;-59
2023/01/20 03:28:02;;;;;;;;;;;;;;;1.83;88.68;101258.09;20959828;28;19924;-58
2023/01/20 03:38:23;;;;;;;;;;;;;;;1.86;88.87;101278.53;20954055;28;20352;-58
2023/01/20 03:49:00;;;;;;;;;;;;;;;1.88;89.36;101287.06;20965589;28;19954;-58
2023/01/20 03:59:22;;;;;;;;;;;;;;;1.87;88.38;101286.19;20954163;28;19953;-58
2023/01/20 04:09:46;;;;;;;;;;;;;;;1.88;87.69;101287.06;20963642;28;20510;-57
2023/01/20 04:20:09;;;;;;;;;;;;;;;1.88;88.01;101292.16;20960307;28;19929;-58
2023/01/20 04:30:30;;;;;;;;;;;;;;;1.95;88.04;101299.91;20952068;28;20280;-57
2023/01/20 04:40:52;;;;;;;;;;;;;;;1.99;87.63;101321.22;20958741;28;19934;-59
2023/01/20 04:51:13;;;;;;;;;;;;;;;2.00;88.04;101322.91;20937595;28;19924;-57
2023/01/20 05:01:35;;;;;;;;;;;;;;;2.02;87.97;101321.25;20943524;28;19932;-58
2023/01/20 05:11:56;;;;;;;;;;;;;;;2.01;88.31;101324.66;20939863;28;19971;-58
2023/01/20 05:22:18;;;;;;;;;;;;;;;2.07;88.56;101329.81;20941496;28;19935;-60
2023/01/20 05:32:39;;;;;;;;;;;;;;;2.15;87.80;101348.63;20943105;28;19962;-58
2023/01/20 05:43:01;;;;;;;;;;;;;;;2.19;87.53;101370.81;20935585;28;19951;-58
2023/01/20 05:53:22;;;;;;;;;;;;;;;2.23;87.62;101385.31;20948018;28;20062;-58
2023/01/20 06:03:44;;;;;;;;;;;;;;;2.28;87.98;101396.44;20942463;28;19925;-58
2023/01/20 06:14:05;;;;;;;;;;;;;;;2.29;86.86;101408.34;20943614;28;20326;-58
2023/01/20 06:24:27;;;;;;;;;;;;;;;2.31;86.87;101424.53;20936194;28;19925;-57
2023/01/20 06:34:48;;;;;;;;;;;;;;;2.30;86.94;101425.41;20932788;28;20445;-57
2023/01/20 06:45:09;;;;;;;;;;;;;;;2.35;86.41;101446.72;20916146;28;19928;-58
2023/01/20 06:55:31;;;;;;;;;;;;;;;2.34;86.33;101454.38;20935502;28;19982;-59
2023/01/20 07:05:57;;;;;;;;;;;;;;;2.39;86.25;101471.47;20911000;28;20039;-58
2023/01/20 07:16:19;;;;;;;;;;;;;;;2.42;86.53;101486.00;20926531;28;20359;-58
2023/01/20 07:26:40;;;;;;;;;;;;;;;2.41;85.83;101500.44;20936782;28;19925;-58
2023/01/20 07:37:02;;;;;;;;;;;;;;;2.44;86.21;101517.47;20933948;28;20434;-60
2023/01/20 07:47:23;;;;;;;;;;;;;;;2.41;84.92;101531.09;20927894;28;19924;-57
2023/01/20 07:57:45;;;;;;;;;;;;;;;2.35;85.05;101543.75;20932636;28;20383;-60
2023/01/20 08:08:06;;;;;;;;;;;;;;;2.45;85.05;101547.31;20937485;28;20020;-59
2023/01/20 08:18:28;;;;;;;;;;;;;;;2.55;85.43;101560.22;20936792;28;19925;-59
2023/01/20 08:28:50;;;;;;;;;;;;;;;2.54;84.99;101583.19;20949850;28;20299;-58
2023/01/20 08:39:16;;;;;;;;;;;;;;;2.60;85.15;101591.78;20949685;28;19924;-60
2023/01/20 08:49:38;;;;;;;;;;;;;;;2.73;84.65;101610.69;20929422;28;19955;-57
2023/01/20 08:59:59;;;;;;;;;;;;;;;2.76;84.68;101620.97;20941606;28;19974;-59
2023/01/20 09:10:21;;;;;;;;;;;;;;;2.83;83.53;101633.00;20932484;28;19928;-58
2023/01/20 09:20:42;;;;;;;;;;;;;;;2.84;84.08;101650.91;20929867;28;19925;-59
2023/01/20 09:31:06;;;;;;;;;;;;;;;2.95;83.20;101669.81;20937591;28;19964;-59
2023/01/20 10:02:58;;;;;;;;;;;;;;;3.04;82.75;101713.38;20926734;28;20372;-58
2023/01/20 10:13:32;;;;;;;;;;;;;;;3.08;82.06;101726.22;20945719;28;19924;-58
2023/01/20 10:23:59;;;;;;;;;;;;;;;3.11;82.19;101731.38;20926355;28;19924;-59
2023/01/20 10:34:21;;;;;;;;;;;;;;;3.12;81.77;101735.63;20933727;28;20525;-57
2023/01/20 10:44:44;;;;;;;;;;;;;;;3.09;80.67;101747.53;20935832;28;19944;-57
2023/01/20 10:55:08;;;;;;;;;;;;;;;3.06;82.04;101747.50;20929494;28;19929;-59
2023/01/20 11:05:40;;;;;;;;;;;;;;;3.04;82.00;101761.94;20945295;28;20353;-57
2023/01/20 11:16:03;;;;;;;;;;;;;;;3.09;82.23;101770.53;20934310;28;20691;-59
2023/01/20 11:26:30;;;;;;;;;;;;;;;3.21;81.99;101774.13;20949815;28;19928;-57
2023/01/20 11:37:04;;;;;;;;;;;;;;;3.32;81.16;101788.78;20943098;28;19924;-58
2023/01/20 11:47:30;;;;;;;;;;;;;;;3.32;81.12;101782.81;20926657;28;19928;-58
2023/01/20 11:58:01;;;;;;;;;;;;;;;3.30;81.26;101794.72;20950518;28;19924;-58
2023/01/20 12:08:26;;;;;;;;;;;;;;;3.48;81.05;101808.63;20951568;28;19982;-57
2023/01/20 12:18:54;;;;;;;;;;;;;;;3.55;80.59;101809.59;20930123;28;20023;-58
2023/01/20 12:29:44;;;;;;;;;;;;;;;3.53;80.61;101818.94;20963635;28;19976;-59
2023/01/20 12:40:06;;;;;;;;;;;;;;;3.52;80.75;101837.69;20957157;28;19955;-58
2023/01/20 12:50:36;;;;;;;;;;;;;;;3.72;80.58;101846.50;20935783;28;19981;-58
2023/01/20 13:01:07;;;;;;;;;;;;;;;3.81;80.08;101857.72;20950112;28;19925;-57
2023/01/20 13:11:49;;;;;;;;;;;;;;;3.85;79.83;101861.19;20946046;28;19983;-59
2023/01/20 13:22:20;;;;;;;;;;;;;;;3.93;79.67;101882.66;20944387;28;20371;-57
2023/01/20 13:32:44;;;;;;;;;;;;;;;3.93;78.77;101908.25;20939233;28;20357;-57
2023/01/20 13:43:24;;;;;;;;;;;;;;;3.89;79.40;101911.59;20951671;28;19967;-58
2023/01/20 13:53:46;;;;;;;;;;;;;;;3.77;79.05;101931.91;20931444;28;19994;-57
2023/01/20 14:04:14;;;;;;;;;;;;;;;3.80;79.13;101942.19;20927142;28;19929;-56
2023/01/20 14:14:40;;;;;;;;;;;;;;;3.87;79.27;101951.66;20921787;28;19928;-57
2023/01/20 14:25:02;;;;;;;;;;;;;;;3.86;79.54;101967.88;20932182;28;20292;-56
2023/01/20 14:35:32;;;;;;;;;;;;;;;3.79;77.05;101996.78;20934523;28;19932;-57
2023/01/20 14:45:53;;;;;;;;;;;;;;;3.81;79.64;102013.00;20937730;28;19928;-57
2023/01/20 14:56:16;;;;;;;;;;;;;;;3.86;79.62;102034.44;20925407;28;19931;-56
2023/01/20 15:06:38;;;;;;;;;;;;;;;3.85;78.77;102061.72;20945426;28;20370;-59
2023/01/20 15:16:59;;;;;;;;;;;;;;;3.72;78.58;102079.38;20930984;28;19929;-56
2023/01/20 15:27:26;;;;;;;;;;;;;;;3.64;78.83;102098.88;20936187;28;19924;-56
2023/01/20 15:37:48;;;;;;;;;;;;;;;3.60;79.39;102117.56;20938358;28;19950;-56
2023/01/20 15:48:13;;;;;;;;;;;;;;;3.55;80.29;102144.75;20924392;28;19924;-56
2023/01/20 15:58:35;;;;;;;;;;;;;;;3.56;79.83;102157.56;20918454;28;19945;-57
2023/01/20 16:08:59;;;;;;;;;;;;;;;3.54;80.42;102174.59;20913378;28;19925;-56
2023/01/20 16:19:20;;;;;;;;;;;;;;;3.48;80.55;102204.31;20929334;28;19929;-56
2023/01/20 16:29:41;;;;;;;;;;;;;;;3.37;80.98;102227.06;20954588;28;19924;-58
2023/01/20 16:40:03;;;;;;;;;;;;;;;3.24;81.41;102244.69;20920998;28;20000;-58
2023/01/20 16:50:27;;;;;;;;;;;;;;;3.03;81.09;102265.50;20935917;28;19948;-58
2023/01/20 17:00:48;;;;;;;;;;;;;;;2.87;81.74;102284.75;20953739;28;19928;-56
2023/01/20 17:11:10;;;;;;;;;;;;;;;2.78;82.92;102304.94;20958069;28;20395;-57
2023/01/20 17:21:32;;;;;;;;;;;;;;;2.68;83.00;102328.53;20937694;28;19928;-57
2023/01/20 17:31:54;;;;;;;;;;;;;;;2.52;82.70;102351.94;20937168;28;19951;-57
2023/01/20 17:42:16;;;;;;;;;;;;;;;2.40;83.31;102360.97;20952589;28;19971;-57
2023/01/20 17:52:38;;;;;;;;;;;;;;;2.26;83.17;102388.66;20951914;28;20339;-57
2023/01/20 18:02:59;;;;;;;;;;;;;;;2.15;83.90;102392.59;20940767;28;19932;-57
2023/01/20 18:13:20;;;;;;;;;;;;;;;2.11;84.03;102418.84;20940132;28;19925;-57
2023/01/20 18:23:42;;;;;;;;;;;;;;;2.02;84.88;102434.75;20936299;28;19928;-57
2023/01/20 18:34:05;;;;;;;;;;;;;;;2.01;84.69;102452.56;20927971;28;19928;-57
2023/01/20 18:44:26;;;;;;;;;;;;;;;1.95;84.44;102472.78;20924209;28;20329;-58
2023/01/20 18:54:48;;;;;;;;;;;;;;;1.90;84.38;102494.75;20937959;28;19982;-58
2023/01/20 19:05:09;;;;;;;;;;;;;;;1.85;85.29;102507.34;20939695;28;19924;-57
2023/01/20 19:15:30;;;;;;;;;;;;;;;1.75;84.78;102524.88;20925515;28;19929;-57
2023/01/20 19:26:04;;;;;;;;;;;;;;;1.63;85.00;102535.53;20921389;28;19928;-58
2023/01/20 19:36:25;;;;;;;;;;;;;;;1.59;85.82;102543.03;20926575;28;19932;-58
2023/01/20 19:46:47;;;;;;;;;;;;;;;1.52;85.88;102566.59;20939224;28;19944;-57
2023/01/20 19:57:08;;;;;;;;;;;;;;;1.49;86.03;102571.56;20925709;28;19970;-58
2023/01/20 20:07:32;;;;;;;;;;;;;;;1.44;86.11;102580.75;20932475;28;19986;-57
2023/01/20 20:17:53;;;;;;;;;;;;;;;1.39;86.11;102590.78;20945351;28;19925;-57
2023/01/20 20:28:15;;;;;;;;;;;;;;;1.36;86.40;102610.19;20942814;28;19979;-57
2023/01/20 20:38:38;;;;;;;;;;;;;;;1.32;86.85;102623.69;20941497;28;20213;-58
2023/01/20 20:48:59;;;;;;;;;;;;;;;1.27;86.48;102630.25;20948797;28;19924;-57
2023/01/20 20:59:23;;;;;;;;;;;;;;;1.23;86.65;102651.38;20949304;28;20367;-59
2023/01/20 21:09:44;;;;;;;;;;;;;;;1.19;87.22;102677.56;20941850;28;19924;-57
2023/01/20 21:20:06;;;;;;;;;;;;;;;1.17;87.43;102687.72;20928245;28;20345;-58
2023/01/20 21:30:28;;;;;;;;;;;;;;;1.16;86.94;102719.09;20954786;28;19981;-57
2023/01/20 21:41:08;;;;;;;;;;;;;;;1.11;87.14;102730.78;20942396;28;19970;-59
2023/01/20 22:02:11;;;;;;;;;;;;;;;1.07;86.71;102758.63;20922308;28;19994;-58
2023/01/20 22:12:34;;;;;;;;;;;;;;;0.92;86.65;102762.31;20939115;28;19932;-57
2023/01/20 22:22:55;;;;;;;;;;;;;;;0.87;87.56;102768.91;20931576;28;20019;-57
2023/01/20 22:33:17;;;;;;;;;;;;;;;0.79;86.52;102767.72;20939940;28;19976;-58
2023/01/20 22:43:39;;;;;;;;;;;;;;;0.75;87.52;102788.78;20927446;28;19932;-57
2023/01/20 22:54:01;;;;;;;;;;;;;;;0.70;87.12;102797.03;20934187;28;19936;-58
2023/01/20 23:04:22;;;;;;;;;;;;;;;0.66;86.77;102800.28;20937550;28;19930;-57
2023/01/20 23:14:59;;;;;;;;;;;;;;;0.66;87.84;102818.97;20937989;28;19929;-57
2023/01/20 23:25:20;;;;;;;;;;;;;;;0.66;87.06;102834.25;20930960;28;19962;-59
2023/01/20 23:35:42;;;;;;;;;;;;;;;0.66;88.30;102846.97;20938018;28;19924;-57
2023/01/20 23:46:04;;;;;;;;;;;;;;;0.64;87.46;102852.84;20946545;28;19978;-57
2023/01/20 23:56:26;;;;;;;;;;;;;;;0.69;88.81;102870.06;20948883;28;20024;-59
